Time;durP1;ratioP1;P1;durP2;ratioP2;P2;SDS_P1;SDS_P2;PMS_P1;PMS_P2;Temp;Humidity;BMP_temperature;BMP_pressure;BME280_temperature;BME280_humidity;BME280_pressure;Samples;Min_cycle;Max_cycle;Signal;HPM_P1;HPM_P2
2023/07/26 00:01:41;;;;;;;6.70;6.30;;;18.20;57.90;;;;;;20559;6824;277562;-70
2023/07/26 00:04:07;;;;;;;5.90;5.50;;;18.30;57.90;;;;;;20766;6824;119668;-68
2023/07/26 00:06:33;;;;;;;5.97;5.57;;;18.30;57.90;;;;;;20744;6824;116935;-68
2023/07/26 00:08:58;;;;;;;6.75;6.30;;;18.10;58.90;;;;;;20569;6824;321012;-70
2023/07/26 00:11:24;;;;;;;6.33;5.83;;;18.10;58.50;;;;;;20763;6824;117507;-70
2023/07/26 00:13:49;;;;;;;5.68;5.28;;;18.10;59.00;;;;;;20782;6824;121988;-69
2023/07/26 00:16:15;;;;;;;6.10;5.60;;;17.90;60.30;;;;;;20788;6824;117108;-68
2023/07/26 00:18:40;;;;;;;7.40;6.80;;;17.70;60.30;;;;;;20579;6824;307009;-69
2023/07/26 00:21:06;;;;;;;6.07;5.67;;;17.90;59.60;;;;;;20786;6824;117033;-69
2023/07/26 00:23:31;;;;;;;5.67;5.20;;;17.80;59.80;;;;;;20766;6824;117162;-67
2023/07/26 00:25:57;;;;;;;7.40;6.90;;;17.70;60.30;;;;;;20567;6824;311066;-70
2023/07/26 00:28:23;;;;;;;6.17;5.77;;;17.90;60.00;;;;;;20784;6824;117022;-70
2023/07/26 00:30:48;;;;;;;6.83;5.53;;;17.90;60.10;;;;;;20784;6824;117013;-70
2023/07/26 00:33:14;;;;;;;7.23;6.80;;;17.70;60.60;;;;;;20549;6824;282173;-67
2023/07/26 00:35:39;;;;;;;6.73;6.27;;;17.90;59.90;;;;;;20779;6824;117687;-70
2023/07/26 00:38:05;;;;;;;6.83;6.23;;;17.90;60.20;;;;;;20775;6824;117943;-70
2023/07/26 00:40:31;;;;;;;7.27;6.73;;;17.90;60.00;;;;;;20566;6824;310704;-67
2023/07/26 00:42:57;;;;;;;7.60;7.10;;;18.20;58.90;;;;;;20572;6824;307444;-69
2023/07/26 00:45:24;;;;;;;6.33;5.83;;;18.20;58.90;;;;;;20760;6824;117581;-70
2023/07/26 00:47:49;;;;;;;6.30;6.00;;;18.10;59.20;;;;;;20778;6822;117612;-68
2023/07/26 00:50:15;;;;;;;6.47;6.13;;;17.90;59.90;;;;;;20786;6823;117419;-70
2023/07/26 00:52:41;;;;;;;6.30;5.90;;;17.70;60.50;;;;;;20781;6823;117363;-69
2023/07/26 00:55:07;;;;;;;8.80;7.93;;;17.70;60.00;;;;;;20564;6823;311984;-69
2023/07/26 00:57:33;;;;;;;7.67;6.90;;;17.70;60.60;;;;;;20755;6823;120915;-69
2023/07/26 00:59:59;;;;;;;8.70;8.10;;;17.70;60.20;;;;;;20567;6824;277461;-67
2023/07/26 01:02:25;;;;;;;10.00;9.00;;;18.20;58.40;;;;;;20577;6824;311071;-69
2023/07/26 01:04:51;;;;;;;9.63;8.82;;;18.20;58.40;;;;;;20570;6824;311339;-70
2023/07/26 01:07:20;;;;;;;10.00;9.10;;;18.60;57.90;;;;;;20551;6824;278099;-67
2023/07/26 01:09:47;;;;;;;8.00;7.37;;;18.40;58.70;;;;;;20739;6824;117805;-71
2023/07/26 01:12:15;;;;;;;7.37;6.97;;;18.40;58.50;;;;;;20765;6824;117917;-71
2023/07/26 01:14:42;;;;;;;8.00;7.30;;;17.80;60.50;;;;;;20771;6824;120645;-69
2023/07/26 01:17:07;;;;;;;8.37;7.57;;;17.70;60.50;;;;;;20757;6824;116931;-71
2023/07/26 01:19:34;;;;;;;10.68;9.70;;;17.70;59.50;;;;;;20539;6824;306699;-71
2023/07/26 01:21:59;;;;;;;9.07;8.27;;;17.60;59.30;;;;;;20775;6824;117194;-70
2023/07/26 01:24:25;;;;;;;10.50;9.77;;;17.70;60.00;;;;;;20564;6824;336139;-70
2023/07/26 01:26:50;;;;;;;11.82;10.70;;;17.80;59.00;;;;;;20569;6824;277146;-69
2023/07/26 01:29:16;;;;;;;11.70;10.53;;;18.10;58.60;;;;;;20544;6824;336257;-70
2023/07/26 01:31:41;;;;;;;9.37;8.57;;;18.30;57.80;;;;;;20778;6824;118670;-71
2023/07/26 01:34:07;;;;;;;11.23;10.32;;;18.10;58.40;;;;;;20567;6824;277532;-70
2023/07/26 01:36:32;;;;;;;10.83;9.93;;;18.10;58.20;;;;;;20556;6824;306860;-71
2023/07/26 01:38:59;;;;;;;11.13;10.13;;;18.40;57.30;;;;;;20559;6824;311235;-70
2023/07/26 01:41:24;;;;;;;10.53;9.83;;;18.40;57.30;;;;;;20536;6824;307912;-71
2023/07/26 01:43:50;;;;;;;8.83;8.23;;;18.50;57.10;;;;;;20776;6824;118494;-71
2023/07/26 01:46:15;;;;;;;8.93;8.07;;;18.20;57.90;;;;;;20778;6824;119597;-71
2023/07/26 01:48:41;;;;;;;10.37;9.57;;;17.90;58.90;;;;;;20574;6824;306692;-72
2023/07/26 01:51:07;;;;;;;8.27;7.78;;;17.90;58.70;;;;;;20549;6824;341087;-72
2023/07/26 01:53:34;;;;;;;8.93;8.25;;;18.10;57.50;;;;;;20551;6824;278027;-71
2023/07/26 01:56:03;;;;;;;8.07;7.57;;;18.30;57.00;;;;;;20780;6824;122825;-70
2023/07/26 01:58:29;;;;;;;7.37;6.90;;;18.10;57.70;;;;;;20777;6824;116985;-71
2023/07/26 02:00:55;;;;;;;8.73;8.02;;;17.80;58.60;;;;;;20568;6822;308938;-72
2023/07/26 02:03:20;;;;;;;9.00;8.30;;;17.80;58.00;;;;;;20554;6823;277581;-71
2023/07/26 02:05:46;;;;;;;7.57;7.07;;;18.10;57.60;;;;;;20775;6823;117635;-72
2023/07/26 02:08:11;;;;;;;7.97;7.47;;;17.90;58.00;;;;;;20563;6823;307460;-71
2023/07/26 02:10:37;;;;;;;7.67;6.77;;;17.90;57.80;;;;;;20772;6824;116982;-72
2023/07/26 02:13:03;;;;;;;8.20;7.60;;;17.80;58.30;;;;;;20562;6824;341077;-71
2023/07/26 02:15:28;;;;;;;6.70;6.20;;;17.80;57.60;;;;;;20782;6824;117142;-72
2023/07/26 02:17:54;;;;;;;8.95;8.25;;;17.70;58.30;;;;;;20573;6824;277038;-72
2023/07/26 02:20:19;;;;;;;9.15;8.45;;;17.80;58.00;;;;;;20560;6824;340766;-70
2023/07/26 02:22:46;;;;;;;9.67;9.07;;;18.10;57.30;;;;;;20566;6824;284336;-69
2023/07/26 02:25:11;;;;;;;7.50;6.90;;;18.10;57.30;;;;;;20781;6824;117499;-75
2023/07/26 02:27:38;;;;;;;8.40;7.53;;;17.90;58.10;;;;;;20643;6824;117129;-71
2023/07/26 02:30:04;;;;;;;7.60;7.07;;;17.60;59.20;;;;;;20797;6824;122705;-71
2023/07/26 02:32:29;;;;;;;7.47;6.87;;;17.30;60.10;;;;;;20785;6824;118100;-70
2023/07/26 02:34:55;;;;;;;7.47;6.97;;;17.10;60.80;;;;;;20790;6824;117414;-70
2023/07/26 02:37:21;;;;;;;7.23;6.77;;;16.80;62.10;;;;;;20756;6824;118132;-70
2023/07/26 02:39:47;;;;;;;9.50;8.75;;;16.80;62.00;;;;;;20565;6824;305567;-71
2023/07/26 02:42:12;;;;;;;9.73;9.13;;;17.00;60.90;;;;;;20559;6824;336140;-71
2023/07/26 02:44:38;;;;;;;8.13;7.30;;;17.40;60.40;;;;;;20774;6824;122845;-69
2023/07/26 02:47:04;;;;;;;9.20;8.60;;;17.40;60.40;;;;;;20573;6824;278787;-70
2023/07/26 02:49:29;;;;;;;9.27;8.60;;;17.50;59.70;;;;;;20548;6824;284781;-72
2023/07/26 02:51:56;;;;;;;9.00;8.30;;;17.90;58.30;;;;;;20574;6824;307324;-71
2023/07/26 02:54:21;;;;;;;9.63;8.77;;;17.90;58.30;;;;;;20571;6824;277626;-71
2023/07/26 02:56:47;;;;;;;9.07;8.47;;;18.00;57.60;;;;;;20567;6824;290757;-69
2023/07/26 02:59:12;;;;;;;7.72;6.82;;;18.20;57.50;;;;;;20757;6824;117079;-71
2023/07/26 03:01:39;;;;;;;8.20;7.68;;;17.90;58.20;;;;;;20571;6824;277546;-70
2023/07/26 03:04:05;;;;;;;6.67;6.13;;;17.80;57.90;;;;;;20775;6824;116977;-70
2023/07/26 03:06:30;;;;;;;6.50;5.90;;;17.70;58.60;;;;;;20777;6824;116960;-70
2023/07/26 03:08:57;;;;;;;8.47;7.87;;;17.40;58.70;;;;;;20562;6824;277946;-71
2023/07/26 03:11:22;;;;;;;6.73;6.30;;;17.40;58.70;;;;;;20759;6822;117388;-70
2023/07/26 03:13:48;;;;;;;8.40;6.23;;;17.30;59.20;;;;;;20773;6823;117291;-70
2023/07/26 03:16:16;;;;;;;8.00;7.50;;;17.10;60.00;;;;;;20565;6823;306575;-72
2023/07/26 03:18:43;;;;;;;8.60;8.03;;;17.20;59.70;;;;;;20566;6823;307474;-70
2023/07/26 03:21:08;;;;;;;7.30;6.80;;;17.50;59.00;;;;;;20778;6823;122914;-71
2023/07/26 03:23:34;;;;;;;7.03;6.65;;;17.40;59.30;;;;;;20767;6824;120579;-70
2023/07/26 03:26:00;;;;;;;6.77;6.30;;;17.10;60.00;;;;;;20775;6824;119647;-71
2023/07/26 03:28:26;;;;;;;6.63;5.97;;;16.70;61.50;;;;;;20757;6824;117209;-69
2023/07/26 03:30:51;;;;;;;7.53;7.03;;;16.70;61.40;;;;;;20566;6824;341024;-70
2023/07/26 03:33:17;;;;;;;6.37;5.97;;;16.90;60.60;;;;;;20758;6824;118051;-70
2023/07/26 03:35:43;;;;;;;7.75;7.25;;;17.10;60.70;;;;;;20581;6824;306898;-70
2023/07/26 03:38:09;;;;;;;7.90;7.40;;;17.10;60.70;;;;;;20569;6824;293516;-70
2023/07/26 03:40:34;;;;;;;7.25;6.85;;;17.50;59.50;;;;;;20568;6824;315430;-68
2023/07/26 03:43:00;;;;;;;6.33;5.93;;;17.70;58.60;;;;;;20781;6824;118162;-71
2023/07/26 03:45:28;;;;;;;5.87;5.47;;;17.60;59.10;;;;;;20761;6824;121445;-70
2023/07/26 03:47:54;;;;;;;7.20;6.70;;;17.20;59.80;;;;;;20570;6824;306594;-71
2023/07/26 03:50:20;;;;;;;7.57;7.07;;;17.30;59.90;;;;;;20564;6824;307457;-72
2023/07/26 03:52:45;;;;;;;8.63;6.03;;;17.60;59.10;;;;;;20780;6824;117468;-72
2023/07/26 03:55:12;;;;;;;5.93;5.63;;;17.20;60.20;;;;;;20780;6824;121847;-77
2023/07/26 03:57:37;;;;;;;7.87;7.30;;;17.20;60.20;;;;;;20325;6839;337389;-72
2023/07/26 04:00:04;;;;;;;5.97;5.67;;;17.30;59.90;;;;;;20658;6839;118350;-70
2023/07/26 04:02:28;;;;;;;7.63;7.03;;;17.30;59.70;;;;;;20482;6839;279309;-69
2023/07/26 04:04:54;;;;;;;7.07;6.67;;;17.40;60.00;;;;;;20563;6824;279564;-70
2023/07/26 04:07:19;;;;;;;6.97;6.57;;;17.60;59.00;;;;;;20528;6829;336154;-70
2023/07/26 04:09:45;;;;;;;7.30;5.70;;;17.80;58.00;;;;;;20737;6839;119422;-69
2023/07/26 04:12:11;;;;;;;5.43;5.03;;;17.20;59.40;;;;;;20735;6839;118634;-69
2023/07/26 04:14:38;;;;;;;5.30;4.90;;;17.20;59.50;;;;;;20777;6824;118217;-71
2023/07/26 04:17:04;;;;;;;6.22;5.80;;;17.10;59.90;;;;;;20546;6829;306934;-69
2023/07/26 04:19:31;;;;;;;5.70;5.40;;;17.30;58.10;;;;;;20536;6824;306950;-70
2023/07/26 04:21:56;;;;;;;4.83;4.60;;;17.30;58.10;;;;;;20786;6824;119219;-69
2023/07/26 04:24:24;;;;;;;6.53;5.93;;;17.30;58.30;;;;;;20575;6822;292964;-68
2023/07/26 04:26:50;;;;;;;5.20;4.70;;;17.20;58.80;;;;;;20787;6823;121962;-72
2023/07/26 04:29:16;;;;;;;6.63;5.13;;;17.20;58.80;;;;;;20767;6823;120754;-72
2023/07/26 04:31:41;;;;;;;5.10;4.70;;;17.00;59.70;;;;;;20788;6823;118231;-75
2023/07/26 04:34:07;;;;;;;5.75;5.35;;;16.80;60.40;;;;;;20570;6824;336522;-73
2023/07/26 04:36:32;;;;;;;5.85;5.53;;;17.00;59.80;;;;;;20595;6824;312164;-73
2023/07/26 04:38:58;;;;;;;6.30;5.82;;;17.30;58.30;;;;;;20573;6824;336942;-72
2023/07/26 04:41:24;;;;;;;5.23;5.00;;;17.60;57.60;;;;;;20757;6824;122940;-72
2023/07/26 04:43:49;;;;;;;6.43;5.93;;;17.50;58.20;;;;;;20576;6824;278775;-72
2023/07/26 04:46:15;;;;;;;6.55;6.00;;;17.50;57.90;;;;;;20566;6824;307686;-71
2023/07/26 04:48:40;;;;;;;5.70;5.30;;;17.80;58.30;;;;;;20773;6824;123414;-71
2023/07/26 04:51:06;;;;;;;6.63;6.17;;;17.70;58.80;;;;;;20566;6824;306420;-73
2023/07/26 04:53:32;;;;;;;6.40;6.00;;;17.70;58.60;;;;;;20545;6824;336983;-73
2023/07/26 04:55:57;;;;;;;5.43;5.03;;;18.00;57.40;;;;;;20785;6824;117637;-72
2023/07/26 04:58:23;;;;;;;6.60;6.20;;;17.80;57.90;;;;;;20569;6824;306996;-72
2023/07/26 05:00:49;;;;;;;5.63;5.30;;;17.90;57.60;;;;;;20773;6824;117006;-72
2023/07/26 05:03:16;;;;;;;5.83;5.53;;;17.50;59.10;;;;;;20756;6824;120656;-74
2023/07/26 05:05:42;;;;;;;5.80;5.37;;;17.50;59.00;;;;;;20771;6824;120087;-72
2023/07/26 05:08:08;;;;;;;5.50;5.17;;;17.30;59.70;;;;;;20749;6824;118252;-78
2023/07/26 05:10:33;;;;;;;6.67;6.27;;;17.20;60.40;;;;;;20554;6824;307332;-72
2023/07/26 05:12:58;;;;;;;7.03;6.62;;;17.40;60.50;;;;;;20550;6824;279051;-73
2023/07/26 05:15:24;;;;;;;6.30;5.70;;;17.70;58.40;;;;;;20756;6824;148650;-70
2023/07/26 05:17:50;;;;;;;6.20;5.73;;;17.50;59.50;;;;;;20769;6824;117072;-70
2023/07/26 05:20:16;;;;;;;6.50;5.90;;;17.40;59.40;;;;;;20779;6824;117080;-75
2023/07/26 05:22:41;;;;;;;6.17;5.70;;;17.30;60.10;;;;;;20782;6824;118388;-72
2023/07/26 05:25:07;;;;;;;7.57;6.80;;;17.10;60.70;;;;;;20566;6824;282211;-71
2023/07/26 05:27:33;;;;;;;7.57;7.05;;;17.40;60.20;;;;;;20544;6824;312757;-72
2023/07/26 05:29:58;;;;;;;6.70;6.20;;;17.80;59.70;;;;;;20771;6824;118077;-72
2023/07/26 05:32:24;;;;;;;6.90;6.47;;;17.70;59.60;;;;;;20515;6824;278086;-72
2023/07/26 05:34:49;;;;;;;6.78;6.22;;;17.90;59.10;;;;;;20713;6822;117030;-72
2023/07/26 05:37:15;;;;;;;6.67;6.17;;;17.80;59.30;;;;;;20738;6823;117440;-71
2023/07/26 05:39:41;;;;;;;7.57;7.03;;;17.70;59.50;;;;;;20548;6823;282275;-72
2023/07/26 05:42:07;;;;;;;7.57;6.87;;;17.70;59.50;;;;;;20540;6823;311658;-72
2023/07/26 05:44:32;;;;;;;8.02;7.53;;;18.00;58.60;;;;;;20530;6823;310649;-72
2023/07/26 05:46:58;;;;;;;7.07;6.40;;;18.30;57.80;;;;;;20783;6824;117610;-72
2023/07/26 05:49:23;;;;;;;7.87;7.27;;;18.20;58.20;;;;;;20551;6824;277655;-73
2023/07/26 05:51:50;;;;;;;8.40;7.60;;;18.40;57.20;;;;;;20559;6824;307897;-72
2023/07/26 05:54:15;;;;;;;10.43;6.77;;;18.40;57.20;;;;;;20774;6824;116878;-72
2023/07/26 05:56:42;;;;;;;6.97;6.33;;;18.20;57.50;;;;;;20775;6824;117847;-71
2023/07/26 05:59:08;;;;;;;8.65;7.95;;;17.90;58.20;;;;;;20547;6824;306593;-72
2023/07/26 06:01:33;;;;;;;6.68;6.25;;;18.00;58.40;;;;;;20762;6824;117926;-71
2023/07/26 06:03:59;;;;;;;6.87;5.50;;;17.90;58.60;;;;;;20775;6824;117002;-72
2023/07/26 06:06:24;;;;;;;7.70;7.18;;;17.70;59.20;;;;;;20575;6824;317239;-72
2023/07/26 06:08:50;;;;;;;7.10;6.50;;;17.70;58.50;;;;;;20781;6824;117257;-72
2023/07/26 06:11:16;;;;;;;7.85;7.15;;;17.70;58.80;;;;;;20541;6824;344596;-71
2023/07/26 06:13:42;;;;;;;8.30;7.60;;;18.10;57.60;;;;;;20568;6824;311839;-73
2023/07/26 06:16:07;;;;;;;8.30;7.63;;;18.00;57.40;;;;;;20568;6824;312584;-72
2023/07/26 06:18:33;;;;;;;6.90;6.30;;;18.30;56.90;;;;;;20784;6824;119982;-72
2023/07/26 06:20:58;;;;;;;7.60;7.00;;;18.10;57.30;;;;;;20570;6824;278746;-72
2023/07/26 06:23:24;;;;;;;5.93;5.47;;;18.10;57.10;;;;;;20762;6824;146365;-72
2023/07/26 06:25:50;;;;;;;7.75;7.15;;;17.90;57.50;;;;;;20570;6824;277865;-72
2023/07/26 06:28:17;;;;;;;8.00;7.30;;;18.20;57.20;;;;;;20571;6824;307412;-71
2023/07/26 06:30:43;;;;;;;7.70;7.10;;;18.20;56.90;;;;;;20562;6824;307940;-72
2023/07/26 06:33:08;;;;;;;7.20;6.60;;;18.40;56.70;;;;;;20568;6824;303036;-72
2023/07/26 06:35:34;;;;;;;5.70;5.40;;;18.60;56.20;;;;;;20768;6824;117678;-72
2023/07/26 06:38:00;;;;;;;5.63;5.23;;;18.40;56.80;;;;;;20774;6824;120621;-71
2023/07/26 06:40:25;;;;;;;6.90;6.30;;;18.20;57.90;;;;;;20560;6824;310297;-69
2023/07/26 06:42:51;;;;;;;5.93;5.33;;;18.30;57.40;;;;;;20773;6824;119935;-69
2023/07/26 06:45:16;;;;;;;6.23;5.83;;;18.30;58.00;;;;;;20546;6824;292775;-70
2023/07/26 06:47:43;;;;;;;5.87;5.47;;;18.90;58.00;;;;;;20782;6822;117324;-69
2023/07/26 06:50:08;;;;;;;5.60;5.10;;;18.80;57.90;;;;;;20778;6823;115936;-72
2023/07/26 06:52:34;;;;;;;5.60;5.07;;;19.30;56.20;;;;;;20566;6823;277165;-72
2023/07/26 06:55:00;;;;;;;5.40;4.73;;;19.30;56.20;;;;;;20774;6823;116967;-71
2023/07/26 06:57:26;;;;;;;4.73;4.33;;;19.50;56.30;;;;;;20759;6824;117048;-70
2023/07/26 06:59:52;;;;;;;4.40;4.10;;;19.30;56.70;;;;;;20780;6824;119359;-69
2023/07/26 07:02:18;;;;;;;5.65;5.25;;;19.50;55.00;;;;;;20566;6824;277512;-73
2023/07/26 07:04:44;;;;;;;5.50;5.12;;;19.50;55.00;;;;;;20572;6824;312386;-72
2023/07/26 07:07:09;;;;;;;4.63;4.33;;;19.80;53.90;;;;;;20790;6824;116628;-72
2023/07/26 07:09:35;;;;;;;4.53;4.20;;;19.70;54.40;;;;;;20767;6824;117323;-73
2023/07/26 07:12:01;;;;;;;4.27;3.90;;;19.40;55.10;;;;;;20783;6824;117631;-70
2023/07/26 07:14:26;;;;;;;5.20;4.70;;;19.10;55.70;;;;;;20566;6824;285746;-72
2023/07/26 07:16:52;;;;;;;4.40;4.10;;;19.20;54.60;;;;;;20778;6824;118361;-71
2023/07/26 07:19:17;;;;;;;5.20;4.90;;;19.20;54.80;;;;;;20577;6824;276656;-74
2023/07/26 07:21:44;;;;;;;4.67;4.23;;;19.20;54.10;;;;;;20798;6824;116168;-75
2023/07/26 07:24:10;;;;;;;5.15;4.65;;;19.10;54.70;;;;;;20590;6824;277798;-73
2023/07/26 07:26:35;;;;;;;5.67;5.20;;;19.10;53.60;;;;;;20566;6824;311862;-73
2023/07/26 07:29:01;;;;;;;5.47;5.05;;;19.20;53.40;;;;;;20566;6824;324160;-73
2023/07/26 07:31:27;;;;;;;5.80;5.20;;;19.50;54.30;;;;;;20554;6824;277830;-72
2023/07/26 07:33:53;;;;;;;5.07;4.70;;;19.50;54.30;;;;;;20779;6824;117574;-72
2023/07/26 07:36:19;;;;;;;5.63;5.17;;;19.30;54.80;;;;;;20572;6824;278001;-73
2023/07/26 07:38:45;;;;;;;5.77;5.37;;;19.30;54.80;;;;;;20583;6824;295449;-74
2023/07/26 07:41:10;;;;;;;4.93;4.63;;;19.50;55.00;;;;;;20771;6824;117072;-73
2023/07/26 07:43:35;;;;;;;5.80;5.20;;;19.30;55.50;;;;;;20588;6824;316763;-73
2023/07/26 07:46:01;;;;;;;5.05;4.65;;;19.40;55.30;;;;;;20828;6824;117788;-72
2023/07/26 07:48:26;;;;;;;5.37;4.80;;;19.20;55.60;;;;;;20800;6824;123380;-72
2023/07/26 07:50:52;;;;;;;4.78;4.47;;;18.90;56.20;;;;;;20794;6824;122836;-76
2023/07/26 07:53:17;;;;;;;6.03;5.53;;;18.60;56.80;;;;;;20552;6824;306972;-73
2023/07/26 07:55:43;;;;;;;5.63;5.13;;;18.80;56.70;;;;;;20787;6824;117658;-73
2023/07/26 07:58:08;;;;;;;6.20;5.80;;;18.70;56.80;;;;;;20582;6822;307744;-73
2023/07/26 08:00:34;;;;;;;5.53;5.07;;;18.80;56.70;;;;;;20790;6823;119093;-76
2023/07/26 08:03:00;;;;;;;5.23;4.83;;;18.70;56.80;;;;;;20785;6823;117046;-78
2023/07/26 08:05:26;;;;;;;5.27;4.87;;;18.20;57.70;;;;;;20765;6823;117667;-75
2023/07/26 08:07:52;;;;;;;6.70;6.10;;;18.20;57.70;;;;;;20575;6823;309435;-74
2023/07/26 08:10:17;;;;;;;6.10;5.57;;;18.30;57.20;;;;;;20578;6824;281252;-76
2023/07/26 08:12:43;;;;;;;6.00;5.60;;;18.60;56.20;;;;;;20786;6824;117023;-74
2023/07/26 08:15:08;;;;;;;6.83;6.13;;;18.40;56.30;;;;;;20574;6824;279799;-73
2023/07/26 08:17:34;;;;;;;6.10;5.62;;;18.40;56.40;;;;;;20555;6824;310744;-75
2023/07/26 08:19:59;;;;;;;4.87;4.50;;;18.50;56.20;;;;;;20767;6824;119941;-76
2023/07/26 08:22:26;;;;;;;3.80;3.53;;;17.90;57.20;;;;;;20777;6824;118233;-74
2023/07/26 08:24:52;;;;;;;5.20;4.80;;;17.80;57.10;;;;;;20568;6824;307753;-75
2023/07/26 08:27:17;;;;;;;4.23;3.50;;;17.90;56.70;;;;;;20751;6824;117994;-73
2023/07/26 08:29:43;;;;;;;3.07;2.80;;;17.70;56.70;;;;;;20566;6824;308819;-72
2023/07/26 08:32:10;;;;;;;3.00;2.80;;;17.70;55.20;;;;;;20569;6824;320182;-75
2023/07/26 08:34:35;;;;;;;2.70;2.50;;;17.80;55.00;;;;;;20564;6824;307480;-74
2023/07/26 08:37:01;;;;;;;2.10;2.00;;;17.60;55.30;;;;;;20787;6824;119649;-75
2023/07/26 08:39:27;;;;;;;2.50;2.30;;;17.60;55.30;;;;;;20540;6824;307551;-74
2023/07/26 08:41:53;;;;;;;2.10;2.00;;;17.60;54.80;;;;;;20568;6824;280970;-73
2023/07/26 08:44:18;;;;;;;1.90;1.80;;;17.80;54.80;;;;;;20785;6824;67660;-75
2023/07/26 08:46:44;;;;;;;1.90;1.80;;;17.60;55.10;;;;;;20570;6824;336091;-77
2023/07/26 08:49:09;;;;;;;1.92;1.83;;;17.60;54.90;;;;;;20564;6824;314970;-73
2023/07/26 08:51:35;;;;;;;1.90;1.80;;;17.70;54.50;;;;;;20513;6824;334128;-74
2023/07/26 08:54:00;;;;;;;1.97;1.87;;;17.90;54.20;;;;;;20770;6824;117843;-73
2023/07/26 08:56:27;;;;;;;1.65;1.55;;;17.70;54.90;;;;;;20549;6824;288464;-73
2023/07/26 08:58:53;;;;;;;1.53;1.43;;;17.60;54.40;;;;;;20555;6824;312551;-75
2023/07/26 09:01:20;;;;;;;1.30;1.20;;;17.80;54.30;;;;;;20515;6824;310720;-74
2023/07/26 09:03:45;;;;;;;1.40;1.30;;;17.90;54.00;;;;;;20747;6824;120685;-74
2023/07/26 09:06:11;;;;;;;1.93;1.30;;;17.60;54.60;;;;;;20760;6824;122483;-71
2023/07/26 09:08:37;;;;;;;1.40;1.17;;;17.20;55.50;;;;;;20626;6824;124289;-75
2023/07/26 09:11:24;;;;;;;2.57;1.80;;;16.90;56.40;;;;;;20539;6822;278352;-75
2023/07/26 09:13:55;;;;;;;1.50;1.40;;;17.00;55.80;;;;;;20675;6823;120330;-75
2023/07/26 09:16:22;;;;;;;1.15;1.15;;;16.90;56.60;;;;;;20533;6823;337897;-73
2023/07/26 09:19:00;;;;;;;1.73;1.13;;;16.90;56.50;;;;;;20760;6823;117421;-73
2023/07/26 09:21:26;;;;;;;1.70;1.60;;;16.90;56.80;;;;;;20542;6824;277880;-73
2023/07/26 09:23:51;;;;;;;1.63;1.53;;;17.00;55.60;;;;;;20537;6824;308063;-73
2023/07/26 09:26:18;;;;;;;2.30;1.62;;;17.20;55.30;;;;;;20567;6824;313291;-72
2023/07/26 09:28:50;;;;;;;1.57;1.37;;;17.30;54.50;;;;;;20502;6824;309020;-73
2023/07/26 09:31:17;;;;;;;1.43;1.40;;;17.40;54.50;;;;;;20545;6824;277100;-73
2023/07/26 09:33:42;;;;;;;1.70;1.60;;;17.50;53.40;;;;;;20515;6824;307845;-73
2023/07/26 09:36:08;;;;;;;1.45;1.45;;;17.50;54.00;;;;;;20569;6824;278172;-73
2023/07/26 09:38:33;;;;;;;1.37;1.27;;;17.40;53.90;;;;;;20573;6824;280350;-72
2023/07/26 09:40:59;;;;;;;7.57;7.07;;;17.40;54.20;;;;;;20572;6824;278379;-73
2023/07/26 09:43:28;;;;;;;1.93;1.83;;;17.40;56.00;;;;;;20539;6824;306560;-74
2023/07/26 09:46:03;;;;;;;2.00;1.90;;;17.50;56.00;;;;;;20556;6824;339397;-73
2023/07/26 09:48:28;;;;;;;1.87;1.77;;;17.80;57.10;;;;;;20554;6824;317289;-73
2023/07/26 09:50:54;;;;;;;2.17;1.97;;;18.10;57.10;;;;;;20546;6824;307014;-74
2023/07/26 09:53:20;;;;;;;1.40;1.40;;;18.40;56.50;;;;;;20523;6824;311735;-73
2023/07/26 09:55:45;;;;;;;3.40;3.20;;;18.70;56.20;;;;;;20550;6824;305252;-73
2023/07/26 09:58:11;;;;;;;1.90;1.80;;;19.00;53.90;;;;;;20559;6824;306714;-72
2023/07/26 10:00:36;;;;;;;1.50;1.40;;;19.20;53.80;;;;;;20559;6824;323137;-74
2023/07/26 10:03:05;;;;;;;1.83;1.60;;;19.40;53.30;;;;;;20769;6824;117000;-74
2023/07/26 10:05:34;;;;;;;2.20;1.30;;;19.40;54.40;;;;;;20754;6824;134082;-74
2023/07/26 10:08:02;;;;;;;1.40;1.30;;;19.40;55.00;;;;;;20769;6824;121111;-75
2023/07/26 10:10:28;;;;;;;1.37;1.27;;;19.40;55.50;;;;;;20769;6824;118550;-74
2023/07/26 10:12:54;;;;;;;1.30;1.30;;;19.40;55.50;;;;;;20776;6824;122912;-76
2023/07/26 10:15:20;;;;;;;1.27;1.27;;;19.50;56.00;;;;;;20758;6824;119174;-74
2023/07/26 10:17:47;;;;;;;1.67;1.58;;;19.80;54.50;;;;;;20551;6824;306732;-75
2023/07/26 10:20:12;;;;;;;1.53;1.43;;;19.70;54.70;;;;;;20778;6824;117565;-75
2023/07/26 10:22:39;;;;;;;1.87;1.77;;;19.90;54.80;;;;;;20770;6822;117002;-75
2023/07/26 10:25:05;;;;;;;1.83;1.73;;;19.70;55.30;;;;;;20503;6823;306679;-81
2023/07/26 10:27:31;;;;;;;1.60;1.60;;;19.70;54.10;;;;;;20741;6823;117983;-76
2023/07/26 10:29:56;;;;;;;4.87;1.60;;;19.50;54.50;;;;;;20767;6823;121139;-72
2023/07/26 10:32:23;;;;;;;1.92;1.83;;;18.80;56.20;;;;;;20723;6824;122463;-74
2023/07/26 10:34:55;;;;;;;2.03;1.83;;;18.80;56.90;;;;;;20768;6824;117692;-73
2023/07/26 10:37:20;;;;;;;2.20;2.10;;;18.60;57.10;;;;;;20541;6824;295537;-73
2023/07/26 10:39:45;;;;;;;1.97;1.87;;;18.70;56.50;;;;;;20762;6824;117104;-73
2023/07/26 10:42:27;;;;;;;2.10;2.00;;;18.70;57.20;;;;;;20780;6824;117067;-73
2023/07/26 10:44:53;;;;;;;2.67;2.50;;;18.60;57.90;;;;;;20771;6824;117032;-72
2023/07/26 10:47:19;;;;;;;2.33;2.15;;;18.70;57.60;;;;;;20459;6824;299342;-74
2023/07/26 10:49:45;;;;;;;2.25;2.15;;;18.70;57.50;;;;;;20554;6824;330959;-73
2023/07/26 10:52:11;;;;;;;1.87;1.77;;;19.00;56.90;;;;;;20758;6824;117439;-73
2023/07/26 10:54:36;;;;;;;2.20;2.10;;;19.00;57.30;;;;;;20561;6824;277838;-74
2023/07/26 10:57:08;;;;;;;2.30;2.00;;;19.10;56.70;;;;;;20768;6824;117446;-71
2023/07/26 10:59:34;;;;;;;1.90;1.80;;;18.90;56.60;;;;;;20729;6824;125437;-73
2023/07/26 11:02:01;;;;;;;2.10;2.00;;;18.70;57.40;;;;;;20779;6824;117051;-73
2023/07/26 11:04:27;;;;;;;2.00;1.90;;;18.60;58.20;;;;;;20765;6824;117111;-74
2023/07/26 11:06:59;;;;;;;2.37;2.13;;;18.50;59.10;;;;;;20564;6824;306547;-72
2023/07/26 11:09:27;;;;;;;1.63;1.60;;;18.70;57.20;;;;;;20755;6824;118040;-72
2023/07/26 11:11:59;;;;;;;2.10;2.00;;;18.80;57.60;;;;;;20547;6824;309153;-73
2023/07/26 11:14:30;;;;;;;1.70;1.60;;;19.00;56.10;;;;;;20774;6824;120149;-72
2023/07/26 11:16:54;;;;;;;1.80;1.60;;;18.80;57.10;;;;;;20758;6824;117070;-73
2023/07/26 11:19:21;;;;;;;1.40;1.40;;;18.80;57.10;;;;;;20719;6824;120176;-74
2023/07/26 11:21:47;;;;;;;1.80;1.70;;;18.70;57.30;;;;;;20551;6824;337004;-73
2023/07/26 11:24:12;;;;;;;1.73;1.62;;;18.90;55.00;;;;;;20551;6824;337265;-73
2023/07/26 11:26:39;;;;;;;2.03;1.85;;;19.30;55.40;;;;;;20782;6824;117110;-70
2023/07/26 11:29:04;;;;;;;1.30;1.30;;;19.20;55.30;;;;;;20728;6824;117205;-69
2023/07/26 11:31:30;;;;;;;1.60;1.50;;;19.20;56.20;;;;;;20741;6824;119697;-70
2023/07/26 11:33:55;;;;;;;1.70;1.60;;;19.10;56.80;;;;;;20780;6822;117581;-69
2023/07/26 11:36:23;;;;;;;2.10;2.00;;;19.00;57.20;;;;;;20577;6823;283473;-69
2023/07/26 11:38:48;;;;;;;1.83;1.70;;;19.30;56.60;;;;;;20755;6823;116988;-69
2023/07/26 11:41:17;;;;;;;2.30;2.20;;;19.50;57.00;;;;;;20575;6823;285158;-68
2023/07/26 11:43:45;;;;;;;1.90;1.80;;;19.80;56.60;;;;;;20551;6824;310253;-68
2023/07/26 11:46:11;;;;;;;2.20;2.00;;;20.20;55.00;;;;;;20604;6838;117138;-69
2023/07/26 11:48:37;;;;;;;1.90;1.80;;;20.40;56.50;;;;;;20733;6829;120083;-69
2023/07/26 11:51:05;;;;;;;1.92;1.83;;;20.30;56.40;;;;;;20530;6824;283572;-69
2023/07/26 11:53:29;;;;;;;1.80;1.70;;;20.60;55.10;;;;;;20500;6824;308084;-68
2023/07/26 11:55:54;;;;;;;2.12;1.90;;;21.00;53.70;;;;;;20542;6824;320717;-68
2023/07/26 11:58:21;;;;;;;1.60;1.50;;;21.40;54.70;;;;;;20759;6824;119926;-69
2023/07/26 12:00:48;;;;;;;2.97;1.50;;;21.30;55.60;;;;;;20732;6824;119194;-69
2023/07/26 12:03:12;;;;;;;1.80;1.70;;;21.30;55.60;;;;;;20750;6824;117694;-68
2023/07/26 12:05:46;;;;;;;2.10;2.00;;;21.40;55.60;;;;;;20520;6824;310106;-68
2023/07/26 12:08:11;;;;;;;2.10;2.00;;;21.30;55.40;;;;;;20544;6824;311662;-70
2023/07/26 12:10:37;;;;;;;2.23;1.67;;;21.70;54.10;;;;;;20764;6824;117488;-70
2023/07/26 12:13:07;;;;;;;2.25;2.03;;;21.70;53.60;;;;;;20519;6824;307167;-69
2023/07/26 12:15:27;;;;;;;2.40;1.87;;;21.80;51.20;;;;;;20731;6824;118272;-68
2023/07/26 12:17:53;;;;;;;2.07;1.97;;;21.70;51.60;;;;;;20562;6824;278099;-70
2023/07/26 12:20:19;;;;;;;1.80;1.70;;;21.80;51.20;;;;;;20746;6824;121232;-70
2023/07/26 12:22:48;;;;;;;1.73;1.63;;;21.40;51.50;;;;;;20774;6824;117377;-70
2023/07/26 12:25:15;;;;;;;1.90;1.80;;;21.40;51.50;;;;;;20560;6824;278087;-68
2023/07/26 12:27:39;;;;;;;2.00;1.90;;;21.40;49.30;;;;;;20532;6834;301425;-69
2023/07/26 12:30:05;;;;;;;1.90;1.80;;;21.60;49.50;;;;;;20579;6819;335544;-68